Jbu Maas — 3EQY6 — position and weather

sailwx.info

Track history (hours):
 
Tides and Currents Weather Stations Pressure Air Temp Water Temp Dewpoint Dewpoint Depression Visibility Wind Speed Wind Dir Waves Ship Positions

Jbu Maas

Last reported at 2016-Dec-07 17:33 UTC. Time now 2016-Dec-07 18:22 UTC.
Position N 51°54' E 004°23'.

Length 126 m; draft 6.3 m.

Type: Tanker. MMSI: 372492000.

Date/timePositionNaut miles runAvg speedWind from/ knotsBaromVisibWave heightAir tempDewpointWater temp
2016-Dec-07 17:33N 51°54' E 004°23'0 0.0
2016-Dec-07 16:33N 51°54' E 004°23'0 0.0
2016-Dec-07 15:34N 51°54' E 004°23'0 0.0
2016-Dec-07 14:33N 51°54' E 004°23'0 0.0
2016-Dec-07 13:33N 51°54' E 004°23'0 0.0
2016-Dec-07 12:33N 51°54' E 004°23'0 0.0
2016-Dec-07 11:33N 51°54' E 004°23'0 0.0
2016-Dec-07 10:33N 51°54' E 004°23'0 0.0
2016-Dec-07 09:33N 51°54' E 004°23'0 0.0
2016-Dec-07 08:33N 51°54' E 004°23'1 1.1
2016-Dec-07 07:33N 51°54' E 004°21'9 9.2
2016-Dec-07 06:33N 51°58' E 004°08'1413.6
2016-Dec-07 05:33N 51°59' E 003°46'10 9.8
2016-Dec-07 04:33N 51°57' E 003°31'1211.8
2016-Dec-07 03:32N 51°53' E 003°12'2014.4
2016-Dec-07 02:10N 51°48' E 002°41'813.5
2016-Dec-07 01:33N 51°43' E 002°31'1313.3
2016-Dec-07 00:33N 51°33' E 002°17'1313.0
2016-Dec-06 23:33N 51°23' E 002°03'1312.8
2016-Dec-06 22:33N 51°13' E 001°49'1313.0
2016-Dec-06 21:33N 51°03' E 001°37'1612.8
2016-Dec-06 20:19N 50°50' E 001°23'5513.7
2016-Dec-06 16:16N 50°22' E 000°08'1014.2
2016-Dec-06 15:33N 50°20' W 000°08'4214.0
2016-Dec-06 12:33N 50°08' W 001°10'1414.4
2016-Dec-06 11:33N 50°03' W 001°32'1514.7
2016-Dec-06 10:33N 49°59' W 001°54'3415.3
2016-Dec-06 08:19N 49°50' W 002°45'2614.7
2016-Dec-06 06:33N 49°43' W 003°24'1614.9
2016-Dec-06 05:30N 49°39' W 003°48'1615.2
2016-Dec-06 04:25N 49°37' W 004°13'  
Track history (hours):
 
Tides and Currents Weather Stations Pressure Air Temp Water Temp Dewpoint Dewpoint Depression Visibility Wind Speed Wind Dir Waves Ship Positions

Jbu Maas

Last reported at 2016-Dec-07 17:33 UTC. Time now 2016-Dec-07 18:22 UTC.
Position N 51°54' E 004°23'.

Length 126 m; draft 6.3 m.

Type: Tanker. MMSI: 372492000.

Date/timePositionNaut miles runAvg speedWind from/ knotsBaromVisibWave heightAir tempDewpointWater temp
2016-Dec-07 17:33N 51°54' E 004°23'0 0.0
2016-Dec-07 16:33N 51°54' E 004°23'0 0.0
2016-Dec-07 15:34N 51°54' E 004°23'0 0.0
2016-Dec-07 14:33N 51°54' E 004°23'0 0.0
2016-Dec-07 13:33N 51°54' E 004°23'0 0.0
2016-Dec-07 12:33N 51°54' E 004°23'0 0.0
2016-Dec-07 11:33N 51°54' E 004°23'0 0.0
2016-Dec-07 10:33N 51°54' E 004°23'0 0.0
2016-Dec-07 09:33N 51°54' E 004°23'0 0.0
2016-Dec-07 08:33N 51°54' E 004°23'1 1.1
2016-Dec-07 07:33N 51°54' E 004°21'9 9.2
2016-Dec-07 06:33N 51°58' E 004°08'1413.6
2016-Dec-07 05:33N 51°59' E 003°46'10 9.8
2016-Dec-07 04:33N 51°57' E 003°31'1211.8
2016-Dec-07 03:32N 51°53' E 003°12'2014.4
2016-Dec-07 02:10N 51°48' E 002°41'813.5
2016-Dec-07 01:33N 51°43' E 002°31'1313.3
2016-Dec-07 00:33N 51°33' E 002°17'1313.0
2016-Dec-06 23:33N 51°23' E 002°03'1312.8
2016-Dec-06 22:33N 51°13' E 001°49'1313.0
2016-Dec-06 21:33N 51°03' E 001°37'1612.8
2016-Dec-06 20:19N 50°50' E 001°23'5513.7
2016-Dec-06 16:16N 50°22' E 000°08'1014.2
2016-Dec-06 15:33N 50°20' W 000°08'4214.0
2016-Dec-06 12:33N 50°08' W 001°10'1414.4
2016-Dec-06 11:33N 50°03' W 001°32'1514.7
2016-Dec-06 10:33N 49°59' W 001°54'3415.3
2016-Dec-06 08:19N 49°50' W 002°45'2614.7
2016-Dec-06 06:33N 49°43' W 003°24'1614.9
2016-Dec-06 05:30N 49°39' W 003°48'1615.2
2016-Dec-06 04:25N 49°37' W 004°13'  

Dump ship's entire track history